sensor_id;sensor_type;location;lat;lon;timestamp;pressure;altitude;pressure_sealevel;temperature;humidity
9189;BME280;34313;50.780;6.084;2023-07-13T00:01:29;99464.25;;;15.67;64.51
9189;BME280;34313;50.780;6.084;2023-07-13T00:03:58;99471.53;;;15.76;64.59
9189;BME280;34313;50.780;6.084;2023-07-13T00:06:23;99465.94;;;15.68;64.51
9189;BME280;34313;50.780;6.084;2023-07-13T00:08:49;99477.66;;;15.65;64.98
9189;BME280;34313;50.780;6.084;2023-07-13T00:11:16;99477.53;;;15.67;65.01
9189;BME280;34313;50.780;6.084;2023-07-13T00:13:42;99476.59;;;15.68;64.81
9189;BME280;34313;50.780;6.084;2023-07-13T00:16:09;99480.09;;;15.57;65.47
9189;BME280;34313;50.780;6.084;2023-07-13T00:18:35;99482.53;;;15.60;65.51
9189;BME280;34313;50.780;6.084;2023-07-13T00:21:03;99489.25;;;15.53;65.75
9189;BME280;34313;50.780;6.084;2023-07-13T00:23:37;99481.06;;;15.56;65.80
9189;BME280;34313;50.780;6.084;2023-07-13T00:26:04;99484.69;;;15.44;66.31
9189;BME280;34313;50.780;6.084;2023-07-13T00:28:29;99489.38;;;15.40;66.58
9189;BME280;34313;50.780;6.084;2023-07-13T00:30:55;99486.25;;;15.35;66.97
9189;BME280;34313;50.780;6.084;2023-07-13T00:33:20;99482.88;;;15.33;67.21
9189;BME280;34313;50.780;6.084;2023-07-13T00:35:46;99489.88;;;15.34;67.23
9189;BME280;34313;50.780;6.084;2023-07-13T00:38:12;99489.03;;;15.34;67.36
9189;BME280;34313;50.780;6.084;2023-07-13T00:40:37;99494.31;;;15.34;67.36
9189;BME280;34313;50.780;6.084;2023-07-13T00:43:02;99479.97;;;15.25;67.61
9189;BME280;34313;50.780;6.084;2023-07-13T00:47:56;99495.91;;;15.25;67.46
9189;BME280;34313;50.780;6.084;2023-07-13T00:50:22;99489.75;;;15.24;67.44
9189;BME280;34313;50.780;6.084;2023-07-13T00:52:51;99484.44;;;15.24;67.76
9189;BME280;34313;50.780;6.084;2023-07-13T00:55:18;99486.50;;;15.21;68.06
9189;BME280;34313;50.780;6.084;2023-07-13T00:57:45;99477.41;;;15.23;67.78
9189;BME280;34313;50.780;6.084;2023-07-13T01:00:11;99482.00;;;15.21;68.07
9189;BME280;34313;50.780;6.084;2023-07-13T01:02:42;99477.56;;;15.33;67.89
9189;BME280;34313;50.780;6.084;2023-07-13T01:05:14;99484.81;;;15.31;68.28
9189;BME280;34313;50.780;6.084;2023-07-13T01:07:41;99485.66;;;15.20;68.54
9189;BME280;34313;50.780;6.084;2023-07-13T01:10:08;99485.28;;;15.13;68.66
9189;BME280;34313;50.780;6.084;2023-07-13T01:12:33;99481.78;;;15.13;68.95
9189;BME280;34313;50.780;6.084;2023-07-13T01:15:00;99481.78;;;15.13;69.05
9189;BME280;34313;50.780;6.084;2023-07-13T01:17:28;99475.38;;;15.16;68.95
9189;BME280;34313;50.780;6.084;2023-07-13T01:19:54;99472.94;;;15.12;68.60
9189;BME280;34313;50.780;6.084;2023-07-13T01:22:19;99477.31;;;15.13;68.42
9189;BME280;34313;50.780;6.084;2023-07-13T01:24:50;99479.63;;;15.18;68.30
9189;BME280;34313;50.780;6.084;2023-07-13T01:27:21;99481.06;;;15.22;67.65
9189;BME280;34313;50.780;6.084;2023-07-13T01:29:50;99471.66;;;15.18;67.11
9189;BME280;34313;50.780;6.084;2023-07-13T01:32:22;99470.06;;;15.04;67.63
9189;BME280;34313;50.780;6.084;2023-07-13T01:34:53;99481.63;;;15.03;67.50
9189;BME280;34313;50.780;6.084;2023-07-13T01:37:23;99467.16;;;14.96;67.63
9189;BME280;34313;50.780;6.084;2023-07-13T01:39:49;99471.75;;;14.94;67.71
9189;BME280;34313;50.780;6.084;2023-07-13T01:42:15;99475.84;;;14.98;67.71
9189;BME280;34313;50.780;6.084;2023-07-13T01:44:40;99474.63;;;15.02;67.62
9189;BME280;34313;50.780;6.084;2023-07-13T01:47:06;99469.56;;;14.99;67.71
9189;BME280;34313;50.780;6.084;2023-07-13T01:49:31;99474.63;;;15.02;67.76
9189;BME280;34313;50.780;6.084;2023-07-13T01:51:57;99469.44;;;14.89;67.82
9189;BME280;34313;50.780;6.084;2023-07-13T01:54:22;99478.47;;;14.87;68.47
9189;BME280;34313;50.780;6.084;2023-07-13T01:56:47;99483.78;;;14.87;68.85
9189;BME280;34313;50.780;6.084;2023-07-13T01:59:13;99474.25;;;14.84;68.35
9189;BME280;34313;50.780;6.084;2023-07-13T02:01:38;99485.56;;;14.86;68.47
9189;BME280;34313;50.780;6.084;2023-07-13T02:04:04;99482.44;;;14.81;68.75
9189;BME280;34313;50.780;6.084;2023-07-13T02:06:29;99491.97;;;14.84;69.25
9189;BME280;34313;50.780;6.084;2023-07-13T02:08:54;99493.03;;;14.81;69.44
9189;BME280;34313;50.780;6.084;2023-07-13T02:11:20;99485.22;;;14.80;69.58
9189;BME280;34313;50.780;6.084;2023-07-13T02:13:45;99493.53;;;14.75;69.97
9189;BME280;34313;50.780;6.084;2023-07-13T02:16:11;99489.06;;;14.75;70.50
9189;BME280;34313;50.780;6.084;2023-07-13T02:18:36;99489.53;;;14.69;70.64
9189;BME280;34313;50.780;6.084;2023-07-13T02:21:02;99482.63;;;14.67;70.96
9189;BME280;34313;50.780;6.084;2023-07-13T02:23:28;99485.75;;;14.61;71.93
9189;BME280;34313;50.780;6.084;2023-07-13T02:25:57;99485.41;;;14.65;72.17
9189;BME280;34313;50.780;6.084;2023-07-13T02:28:23;99494.03;;;14.56;73.20
9189;BME280;34313;50.780;6.084;2023-07-13T02:30:48;99487.56;;;14.60;73.12
9189;BME280;34313;50.780;6.084;2023-07-13T02:33:14;99486.19;;;14.54;73.83
9189;BME280;34313;50.780;6.084;2023-07-13T02:35:39;99486.28;;;14.53;74.24
9189;BME280;34313;50.780;6.084;2023-07-13T02:38:04;99496.19;;;14.51;74.60
9189;BME280;34313;50.780;6.084;2023-07-13T02:40:30;99495.22;;;14.52;75.07
9189;BME280;34313;50.780;6.084;2023-07-13T02:42:58;99495.66;;;14.46;75.31
9189;BME280;34313;50.780;6.084;2023-07-13T02:45:23;99497.78;;;14.53;75.44
9189;BME280;34313;50.780;6.084;2023-07-13T02:47:49;99492.31;;;14.55;75.72
9189;BME280;34313;50.780;6.084;2023-07-13T02:50:14;99493.91;;;14.57;75.83
9189;BME280;34313;50.780;6.084;2023-07-13T02:52:39;99501.03;;;14.57;76.02
9189;BME280;34313;50.780;6.084;2023-07-13T02:55:05;99495.66;;;14.59;75.62
9189;BME280;34313;50.780;6.084;2023-07-13T02:57:30;99485.78;;;14.48;76.47
9189;BME280;34313;50.780;6.084;2023-07-13T02:59:58;99493.31;;;14.54;76.61
9189;BME280;34313;50.780;6.084;2023-07-13T03:02:23;99496.56;;;14.57;76.91
9189;BME280;34313;50.780;6.084;2023-07-13T03:04:49;99497.00;;;14.51;77.05
9189;BME280;34313;50.780;6.084;2023-07-13T03:07:14;99489.31;;;14.48;77.73
9189;BME280;34313;50.780;6.084;2023-07-13T03:09:40;99491.97;;;14.48;77.75
9189;BME280;34313;50.780;6.084;2023-07-13T03:12:06;99498.09;;;14.49;78.08
9189;BME280;34313;50.780;6.084;2023-07-13T03:14:32;99500.25;;;14.44;78.49
9189;BME280;34313;50.780;6.084;2023-07-13T03:16:57;99493.38;;;14.41;78.88
9189;BME280;34313;50.780;6.084;2023-07-13T03:19:23;99504.25;;;14.49;79.14
9189;BME280;34313;50.780;6.084;2023-07-13T03:21:48;99502.91;;;14.44;79.12
9189;BME280;34313;50.780;6.084;2023-07-13T03:24:13;99499.19;;;14.46;79.46
9189;BME280;34313;50.780;6.084;2023-07-13T03:26:39;99504.13;;;14.51;79.23
9189;BME280;34313;50.780;6.084;2023-07-13T03:29:04;99507.75;;;14.50;79.49
9189;BME280;34313;50.780;6.084;2023-07-13T03:31:35;99506.66;;;14.52;79.71
9189;BME280;34313;50.780;6.084;2023-07-13T03:34:00;99506.34;;;14.57;79.42
9189;BME280;34313;50.780;6.084;2023-07-13T03:36:28;99509.94;;;14.56;79.67
9189;BME280;34313;50.780;6.084;2023-07-13T03:38:56;99514.06;;;14.60;79.72
9189;BME280;34313;50.780;6.084;2023-07-13T03:41:22;99512.91;;;14.64;79.99
9189;BME280;34313;50.780;6.084;2023-07-13T03:43:48;99512.19;;;14.62;80.33
9189;BME280;34313;50.780;6.084;2023-07-13T03:46:14;99513.25;;;14.60;80.29
9189;BME280;34313;50.780;6.084;2023-07-13T03:48:41;99516.34;;;14.53;80.76
9189;BME280;34313;50.780;6.084;2023-07-13T03:51:08;99529.53;;;14.66;80.85
9189;BME280;34313;50.780;6.084;2023-07-13T03:53:37;99528.34;;;14.70;80.96
9189;BME280;34313;50.780;6.084;2023-07-13T03:56:02;99524.25;;;14.78;80.82
9189;BME280;34313;50.780;6.084;2023-07-13T03:58:33;99516.19;;;14.79;80.26
9189;BME280;34313;50.780;6.084;2023-07-13T04:01:00;99527.91;;;14.88;80.36
9189;BME280;34313;50.780;6.084;2023-07-13T04:03:27;99529.53;;;15.02;79.82
9189;BME280;34313;50.780;6.084;2023-07-13T04:05:56;99534.72;;;15.03;79.78
9189;BME280;34313;50.780;6.084;2023-07-13T04:08:29;99531.63;;;15.09;79.48
9189;BME280;34313;50.780;6.084;2023-07-13T04:10:56;99532.22;;;15.13;79.51
9189;BME280;34313;50.780;6.084;2023-07-13T04:13:22;99535.50;;;15.17;79.17
9189;BME280;34313;50.780;6.084;2023-07-13T04:15:47;99535.00;;;15.23;78.97
9189;BME280;34313;50.780;6.084;2023-07-13T04:18:13;99523.16;;;15.27;78.45
9189;BME280;34313;50.780;6.084;2023-07-13T04:20:38;99539.84;;;15.40;78.06
9189;BME280;34313;50.780;6.084;2023-07-13T04:23:03;99550.97;;;15.45;77.67
9189;BME280;34313;50.780;6.084;2023-07-13T04:25:28;99550.00;;;15.58;77.11
9189;BME280;34313;50.780;6.084;2023-07-13T04:27:54;99549.16;;;15.57;77.18
9189;BME280;34313;50.780;6.084;2023-07-13T04:30:20;99553.03;;;15.64;77.10
9189;BME280;34313;50.780;6.084;2023-07-13T04:32:46;99558.09;;;15.67;76.93
9189;BME280;34313;50.780;6.084;2023-07-13T04:35:11;99556.06;;;15.71;76.58
9189;BME280;34313;50.780;6.084;2023-07-13T04:37:36;99551.13;;;15.78;76.32
9189;BME280;34313;50.780;6.084;2023-07-13T04:40:02;99552.94;;;15.88;75.54
9189;BME280;34313;50.780;6.084;2023-07-13T04:42:28;99563.66;;;15.98;75.54
9189;BME280;34313;50.780;6.084;2023-07-13T04:44:54;99554.50;;;16.02;74.91
9189;BME280;34313;50.780;6.084;2023-07-13T04:47:19;99557.25;;;16.23;74.15
9189;BME280;34313;50.780;6.084;2023-07-13T04:49:45;99562.69;;;16.54;73.21
9189;BME280;34313;50.780;6.084;2023-07-13T04:52:11;99553.66;;;16.78;71.38
9189;BME280;34313;50.780;6.084;2023-07-13T04:54:36;99557.47;;;16.96;70.47
9189;BME280;34313;50.780;6.084;2023-07-13T04:57:03;99565.00;;;17.33;69.47
9189;BME280;34313;50.780;6.084;2023-07-13T04:59:28;99552.59;;;17.74;67.26
9189;BME280;34313;50.780;6.084;2023-07-13T05:01:53;99562.22;;;18.47;64.82
9189;BME280;34313;50.780;6.084;2023-07-13T05:04:19;99559.13;;;19.30;61.60
9189;BME280;34313;50.780;6.084;2023-07-13T05:06:44;99555.78;;;20.30;58.00
9189;BME280;34313;50.780;6.084;2023-07-13T05:09:10;99561.06;;;21.90;54.06
9189;BME280;34313;50.780;6.084;2023-07-13T05:11:35;99566.53;;;24.35;46.93
9189;BME280;34313;50.780;6.084;2023-07-13T05:14:00;99559.34;;;26.03;42.59
9189;BME280;34313;50.780;6.084;2023-07-13T05:16:26;99557.78;;;27.95;38.25
9189;BME280;34313;50.780;6.084;2023-07-13T05:18:52;99559.09;;;28.74;36.23
9189;BME280;34313;50.780;6.084;2023-07-13T05:21:17;99561.13;;;27.62;37.43
9189;BME280;34313;50.780;6.084;2023-07-13T05:23:42;99566.06;;;26.80;38.96
9189;BME280;34313;50.780;6.084;2023-07-13T05:26:08;99568.53;;;26.23;40.11
9189;BME280;34313;50.780;6.084;2023-07-13T05:28:33;99567.63;;;25.72;40.84
9189;BME280;34313;50.780;6.084;2023-07-13T05:30:58;99575.06;;;25.70;41.19
9189;BME280;34313;50.780;6.084;2023-07-13T05:33:24;99583.75;;;25.65;41.20
9189;BME280;34313;50.780;6.084;2023-07-13T05:35:50;99582.88;;;24.88;42.44
9189;BME280;34313;50.780;6.084;2023-07-13T05:38:16;99581.56;;;24.30;43.82
9189;BME280;34313;50.780;6.084;2023-07-13T05:40:45;99588.28;;;24.88;43.04
9189;BME280;34313;50.780;6.084;2023-07-13T05:43:10;99577.84;;;24.85;42.75
9189;BME280;34313;50.780;6.084;2023-07-13T05:45:36;99599.50;;;24.38;43.75
9189;BME280;34313;50.780;6.084;2023-07-13T05:48:01;99594.63;;;23.13;46.83
9189;BME280;34313;50.780;6.084;2023-07-13T05:50:26;99596.22;;;22.64;47.98
9189;BME280;34313;50.780;6.084;2023-07-13T05:52:52;99594.69;;;22.11;49.61
9189;BME280;34313;50.780;6.084;2023-07-13T05:55:18;99606.97;;;21.79;50.73
9189;BME280;34313;50.780;6.084;2023-07-13T05:57:43;99598.97;;;21.43;51.92
9189;BME280;34313;50.780;6.084;2023-07-13T06:00:09;99605.59;;;21.31;52.61
9189;BME280;34313;50.780;6.084;2023-07-13T06:02:35;99597.41;;;21.32;52.62
9189;BME280;34313;50.780;6.084;2023-07-13T06:05:00;99611.91;;;21.22;53.31
9189;BME280;34313;50.780;6.084;2023-07-13T06:07:26;99611.59;;;21.07;53.77
9189;BME280;34313;50.780;6.084;2023-07-13T06:09:51;99615.97;;;20.90;54.57
9189;BME280;34313;50.780;6.084;2023-07-13T06:12:16;99616.88;;;20.81;55.09
9189;BME280;34313;50.780;6.084;2023-07-13T06:14:42;99611.31;;;20.92;54.93
9189;BME280;34313;50.780;6.084;2023-07-13T06:17:07;99621.25;;;21.00;54.88
9189;BME280;34313;50.780;6.084;2023-07-13T06:19:33;99616.03;;;20.98;55.15
9189;BME280;34313;50.780;6.084;2023-07-13T06:21:59;99623.09;;;20.99;55.20
9189;BME280;34313;50.780;6.084;2023-07-13T06:26:50;99633.03;;;20.71;56.31
9189;BME280;34313;50.780;6.084;2023-07-13T06:29:15;99634.25;;;20.76;56.40
9189;BME280;34313;50.780;6.084;2023-07-13T06:31:40;99625.78;;;20.99;55.61
9189;BME280;34313;50.780;6.084;2023-07-13T06:34:06;99632.91;;;21.70;53.60
9189;BME280;34313;50.780;6.084;2023-07-13T06:36:31;99629.28;;;22.57;51.41
9189;BME280;34313;50.780;6.084;2023-07-13T06:38:56;99627.19;;;23.34;49.55
9189;BME280;34313;50.780;6.084;2023-07-13T06:41:22;99640.88;;;24.05;47.67
9189;BME280;34313;50.780;6.084;2023-07-13T06:43:47;99619.31;;;24.13;46.29
9189;BME280;34313;50.780;6.084;2023-07-13T06:46:13;99644.34;;;24.30;46.33
9189;BME280;34313;50.780;6.084;2023-07-13T06:48:38;99645.72;;;24.58;45.47
9189;BME280;34313;50.780;6.084;2023-07-13T06:51:04;99641.97;;;25.21;44.49
9189;BME280;34313;50.780;6.084;2023-07-13T06:53:29;99639.38;;;25.51;43.29
9189;BME280;34313;50.780;6.084;2023-07-13T06:55:54;99650.41;;;26.24;42.31
9189;BME280;34313;50.780;6.084;2023-07-13T06:58:21;99647.28;;;26.57;40.98
9189;BME280;34313;50.780;6.084;2023-07-13T07:00:50;99653.06;;;26.54;40.94
9189;BME280;34313;50.780;6.084;2023-07-13T07:03:16;99651.06;;;27.35;39.49
9189;BME280;34313;50.780;6.084;2023-07-13T07:05:42;99641.63;;;27.81;38.73
9189;BME280;34313;50.780;6.084;2023-07-13T07:08:07;99640.69;;;27.96;38.18
9189;BME280;34313;50.780;6.084;2023-07-13T07:10:33;99647.44;;;28.06;38.01
9189;BME280;34313;50.780;6.084;2023-07-13T07:12:58;99655.53;;;28.41;37.41
9189;BME280;34313;50.780;6.084;2023-07-13T07:15:24;99657.13;;;28.29;37.08
9189;BME280;34313;50.780;6.084;2023-07-13T07:17:49;99647.00;;;28.03;37.54
9189;BME280;34313;50.780;6.084;2023-07-13T07:20:14;99662.22;;;27.47;38.36
9189;BME280;34313;50.780;6.084;2023-07-13T07:22:40;99661.94;;;27.21;39.36
9189;BME280;34313;50.780;6.084;2023-07-13T07:25:05;99660.47;;;27.18;39.58
9189;BME280;34313;50.780;6.084;2023-07-13T07:27:31;99664.06;;;27.68;38.35
9189;BME280;34313;50.780;6.084;2023-07-13T07:29:57;99669.66;;;27.24;39.05
9189;BME280;34313;50.780;6.084;2023-07-13T07:32:23;99657.03;;;27.09;39.30
9189;BME280;34313;50.780;6.084;2023-07-13T07:34:48;99667.19;;;26.86;39.43
9189;BME280;34313;50.780;6.084;2023-07-13T07:37:14;99657.25;;;27.08;39.06
9189;BME280;34313;50.780;6.084;2023-07-13T07:39:40;99669.19;;;27.35;38.47
9189;BME280;34313;50.780;6.084;2023-07-13T07:42:06;99677.16;;;27.43;38.63
9189;BME280;34313;50.780;6.084;2023-07-13T07:44:32;99660.63;;;27.31;38.66
9189;BME280;34313;50.780;6.084;2023-07-13T07:46:58;99675.47;;;26.99;39.63
9189;BME280;34313;50.780;6.084;2023-07-13T07:49:23;99672.38;;;26.66;39.77
9189;BME280;34313;50.780;6.084;2023-07-13T07:51:48;99665.50;;;26.48;40.29
9189;BME280;34313;50.780;6.084;2023-07-13T07:54:14;99668.38;;;26.47;40.31
9189;BME280;34313;50.780;6.084;2023-07-13T07:56:39;99676.34;;;27.71;38.27
9189;BME280;34313;50.780;6.084;2023-07-13T07:59:05;99666.94;;;28.65;36.74
9189;BME280;34313;50.780;6.084;2023-07-13T08:01:30;99668.53;;;29.74;34.59
9189;BME280;34313;50.780;6.084;2023-07-13T08:03:55;99665.56;;;30.23;34.01
9189;BME280;34313;50.780;6.084;2023-07-13T08:06:21;99663.09;;;31.05;32.68
9189;BME280;34313;50.780;6.084;2023-07-13T08:08:47;99661.75;;;32.70;30.10
9189;BME280;34313;50.780;6.084;2023-07-13T08:11:12;99656.31;;;33.12;29.59
9189;BME280;34313;50.780;6.084;2023-07-13T08:13:38;99661.91;;;32.57;29.76
9189;BME280;34313;50.780;6.084;2023-07-13T08:16:04;99662.16;;;32.37;30.09
9189;BME280;34313;50.780;6.084;2023-07-13T08:18:30;99669.72;;;33.02;29.17
9189;BME280;34313;50.780;6.084;2023-07-13T08:20:55;99657.22;;;32.27;30.22
9189;BME280;34313;50.780;6.084;2023-07-13T08:23:25;99646.50;;;30.75;31.94
9189;BME280;34313;50.780;6.084;2023-07-13T08:25:52;99669.41;;;31.05;31.78
9189;BME280;34313;50.780;6.084;2023-07-13T08:28:18;99663.16;;;31.30;31.41
9189;BME280;34313;50.780;6.084;2023-07-13T08:30:43;99660.47;;;30.46;32.35
9189;BME280;34313;50.780;6.084;2023-07-13T08:33:09;99655.03;;;31.23;31.67
9189;BME280;34313;50.780;6.084;2023-07-13T08:35:34;99665.22;;;34.09;27.67
9189;BME280;34313;50.780;6.084;2023-07-13T08:37:59;99651.97;;;35.78;25.50
9189;BME280;34313;50.780;6.084;2023-07-13T08:40:27;99662.78;;;37.98;23.16
9189;BME280;34313;50.780;6.084;2023-07-13T08:42:58;99653.41;;;40.26;20.92
9189;BME280;34313;50.780;6.084;2023-07-13T08:45:37;99651.50;;;40.82;19.69
9189;BME280;34313;50.780;6.084;2023-07-13T08:48:10;99642.09;;;40.78;19.74
9189;BME280;34313;50.780;6.084;2023-07-13T08:50:47;99641.31;;;41.12;18.88
9189;BME280;34313;50.780;6.084;2023-07-13T08:53:15;99644.25;;;41.55;18.91
9189;BME280;34313;50.780;6.084;2023-07-13T08:55:41;99640.75;;;40.15;19.98
9189;BME280;34313;50.780;6.084;2023-07-13T08:58:16;99650.81;;;39.08;20.78
9189;BME280;34313;50.780;6.084;2023-07-13T09:03:23;99645.28;;;39.65;20.42
9189;BME280;34313;50.780;6.084;2023-07-13T09:05:57;99639.75;;;40.56;19.24
9189;BME280;34313;50.780;6.084;2023-07-13T09:15:00;99622.06;;;37.20;22.30
9189;BME280;34313;50.780;6.084;2023-07-13T09:17:03;99619.84;;;37.97;21.70
9189;BME280;34313;50.780;6.084;2023-07-13T09:19:31;99627.88;;;37.61;22.19
9189;BME280;34313;50.780;6.084;2023-07-13T09:21:59;99612.66;;;37.86;21.72
9189;BME280;34313;50.780;6.084;2023-07-13T09:24:37;99635.69;;;38.32;21.24
9189;BME280;34313;50.780;6.084;2023-07-13T09:27:12;99622.63;;;38.70;20.66
9189;BME280;34313;50.780;6.084;2023-07-13T09:29:41;99624.72;;;37.79;21.69
9189;BME280;34313;50.780;6.084;2023-07-13T09:32:11;99620.81;;;37.05;22.88
9189;BME280;34313;50.780;6.084;2023-07-13T09:34:39;99613.66;;;35.84;24.24
9189;BME280;34313;50.780;6.084;2023-07-13T09:37:05;99613.69;;;35.50;24.43
9189;BME280;34313;50.780;6.084;2023-07-13T09:39:37;99614.06;;;34.62;25.01
9189;BME280;34313;50.780;6.084;2023-07-13T09:42:13;99623.03;;;33.69;26.37
9189;BME280;34313;50.780;6.084;2023-07-13T09:47:17;99623.97;;;32.37;27.51
9189;BME280;34313;50.780;6.084;2023-07-13T09:49:43;99628.44;;;33.22;26.80
9189;BME280;34313;50.780;6.084;2023-07-13T09:52:12;99629.91;;;33.48;26.62
9189;BME280;34313;50.780;6.084;2023-07-13T09:54:39;99625.31;;;33.84;26.39
9189;BME280;34313;50.780;6.084;2023-07-13T09:57:17;99629.16;;;32.57;27.78
9189;BME280;34313;50.780;6.084;2023-07-13T09:59:47;99630.03;;;31.58;29.11
9189;BME280;34313;50.780;6.084;2023-07-13T10:02:31;99622.97;;;31.94;28.98
9189;BME280;34313;50.780;6.084;2023-07-13T10:05:02;99636.78;;;31.24;29.65
9189;BME280;34313;50.780;6.084;2023-07-13T10:07:29;99628.78;;;31.04;29.78
9189;BME280;34313;50.780;6.084;2023-07-13T10:10:00;99631.50;;;31.04;30.18
9189;BME280;34313;50.780;6.084;2023-07-13T10:12:29;99641.22;;;30.86;30.20
9189;BME280;34313;50.780;6.084;2023-07-13T10:14:57;99642.38;;;30.65;30.39
9189;BME280;34313;50.780;6.084;2023-07-13T10:17:28;99641.13;;;30.09;31.19
9189;BME280;34313;50.780;6.084;2023-07-13T10:19:58;99633.22;;;29.74;31.63
9189;BME280;34313;50.780;6.084;2023-07-13T10:22:42;99655.19;;;29.53;31.99
9189;BME280;34313;50.780;6.084;2023-07-13T10:25:22;99648.72;;;29.40;32.11
9189;BME280;34313;50.780;6.084;2023-07-13T10:27:54;99663.28;;;29.13;32.91
9189;BME280;34313;50.780;6.084;2023-07-13T10:30:27;99656.34;;;28.90;32.92
9189;BME280;34313;50.780;6.084;2023-07-13T10:32:58;99664.06;;;28.87;32.92
9189;BME280;34313;50.780;6.084;2023-07-13T10:35:26;99668.66;;;28.38;34.03
9189;BME280;34313;50.780;6.084;2023-07-13T10:38:05;99659.75;;;27.81;34.73
9189;BME280;34313;50.780;6.084;2023-07-13T10:40:37;99659.34;;;27.84;34.97
9189;BME280;34313;50.780;6.084;2023-07-13T10:43:09;99661.91;;;27.35;36.01
9189;BME280;34313;50.780;6.084;2023-07-13T10:45:39;99661.91;;;27.64;35.58
9189;BME280;34313;50.780;6.084;2023-07-13T10:48:05;99670.50;;;27.96;35.18
9189;BME280;34313;50.780;6.084;2023-07-13T10:50:32;99663.72;;;28.13;34.91
9189;BME280;34313;50.780;6.084;2023-07-13T10:53:03;99674.41;;;28.21;34.50
9189;BME280;34313;50.780;6.084;2023-07-13T10:58:24;99672.94;;;28.60;33.47
9189;BME280;34313;50.780;6.084;2023-07-13T11:01:01;99672.66;;;28.48;33.93
9189;BME280;34313;50.780;6.084;2023-07-13T11:03:28;99668.97;;;28.56;33.63
9189;BME280;34313;50.780;6.084;2023-07-13T11:08:51;99690.13;;;28.39;33.30
9189;BME280;34313;50.780;6.084;2023-07-13T11:14:00;99692.75;;;27.20;35.57
9189;BME280;34313;50.780;6.084;2023-07-13T11:16:35;99682.94;;;26.31;37.10
9189;BME280;34313;50.780;6.084;2023-07-13T11:21:29;99690.72;;;25.81;38.35
9189;BME280;34313;50.780;6.084;2023-07-13T11:24:13;99695.16;;;25.74;38.57
9189;BME280;34313;50.780;6.084;2023-07-13T11:26:51;99695.34;;;25.87;38.31
9189;BME280;34313;50.780;6.084;2023-07-13T11:31:42;99692.75;;;26.83;37.21
9189;BME280;34313;50.780;6.084;2023-07-13T11:34:14;99692.78;;;27.05;37.04
9189;BME280;34313;50.780;6.084;2023-07-13T11:36:43;99688.78;;;27.22;36.28
9189;BME280;34313;50.780;6.084;2023-07-13T11:39:22;99686.88;;;27.59;35.93
9189;BME280;34313;50.780;6.084;2023-07-13T11:41:52;99688.94;;;27.57;35.81
9189;BME280;34313;50.780;6.084;2023-07-13T11:44:22;99676.72;;;27.68;35.61
9189;BME280;34313;50.780;6.084;2023-07-13T11:46:50;99684.25;;;27.44;35.59
9189;BME280;34313;50.780;6.084;2023-07-13T11:49:19;99681.41;;;27.31;36.16
9189;BME280;34313;50.780;6.084;2023-07-13T11:51:45;99683.81;;;27.41;35.91
9189;BME280;34313;50.780;6.084;2023-07-13T11:54:31;99684.47;;;27.06;36.28
9189;BME280;34313;50.780;6.084;2023-07-13T11:59:53;99673.59;;;26.48;36.66
9189;BME280;34313;50.780;6.084;2023-07-13T12:02:29;99676.13;;;26.20;37.28
9189;BME280;34313;50.780;6.084;2023-07-13T12:04:55;99675.28;;;25.90;37.58
9189;BME280;34313;50.780;6.084;2023-07-13T12:07:22;99674.69;;;25.79;37.94
9189;BME280;34313;50.780;6.084;2023-07-13T12:09:47;99670.34;;;25.55;38.54
9189;BME280;34313;50.780;6.084;2023-07-13T12:12:18;99672.88;;;25.57;38.36
9189;BME280;34313;50.780;6.084;2023-07-13T12:14:44;99675.31;;;25.66;37.78
9189;BME280;34313;50.780;6.084;2023-07-13T12:17:19;99668.75;;;25.46;38.05
9189;BME280;34313;50.780;6.084;2023-07-13T12:19:45;99661.72;;;25.60;38.01
9189;BME280;34313;50.780;6.084;2023-07-13T12:22:13;99674.72;;;25.94;37.61
9189;BME280;34313;50.780;6.084;2023-07-13T12:24:40;99655.25;;;26.14;36.88
9189;BME280;34313;50.780;6.084;2023-07-13T12:27:18;99673.91;;;26.23;36.71
9189;BME280;34313;50.780;6.084;2023-07-13T12:29:56;99670.25;;;26.46;36.24
9189;BME280;34313;50.780;6.084;2023-07-13T12:32:24;99664.16;;;26.59;36.01
9189;BME280;34313;50.780;6.084;2023-07-13T12:34:55;99674.34;;;26.57;35.61
9189;BME280;34313;50.780;6.084;2023-07-13T12:37:21;99671.50;;;26.80;35.80
9189;BME280;34313;50.780;6.084;2023-07-13T12:39:48;99684.50;;;26.55;36.02
9189;BME280;34313;50.780;6.084;2023-07-13T12:44:42;99683.38;;;26.64;35.86
9189;BME280;34313;50.780;6.084;2023-07-13T12:47:13;99673.34;;;25.98;36.51
9189;BME280;34313;50.780;6.084;2023-07-13T12:49:56;99682.00;;;25.94;36.91
9189;BME280;34313;50.780;6.084;2023-07-13T12:52:30;99671.34;;;25.77;36.91
9189;BME280;34313;50.780;6.084;2023-07-13T12:54:58;99681.38;;;25.83;36.44
9189;BME280;34313;50.780;6.084;2023-07-13T12:57:25;99682.09;;;26.00;36.65
9189;BME280;34313;50.780;6.084;2023-07-13T12:59:55;99676.78;;;26.22;36.52
9189;BME280;34313;50.780;6.084;2023-07-13T13:02:28;99676.59;;;26.09;36.96
9189;BME280;34313;50.780;6.084;2023-07-13T13:04:55;99667.28;;;25.96;37.32
9189;BME280;34313;50.780;6.084;2023-07-13T13:07:22;99672.50;;;26.13;36.88
9189;BME280;34313;50.780;6.084;2023-07-13T13:09:48;99674.47;;;26.34;36.53
9189;BME280;34313;50.780;6.084;2023-07-13T13:12:13;99676.34;;;26.33;35.94
9189;BME280;34313;50.780;6.084;2023-07-13T13:14:38;99665.25;;;26.13;36.65
9189;BME280;34313;50.780;6.084;2023-07-13T13:17:18;99676.03;;;26.13;35.67
9189;BME280;34313;50.780;6.084;2023-07-13T13:19:45;99683.69;;;26.25;35.34
9189;BME280;34313;50.780;6.084;2023-07-13T13:22:10;99679.50;;;26.37;34.96
9189;BME280;34313;50.780;6.084;2023-07-13T13:24:36;99668.75;;;26.14;35.53
9189;BME280;34313;50.780;6.084;2023-07-13T13:27:01;99665.88;;;26.15;35.83
9189;BME280;34313;50.780;6.084;2023-07-13T13:29:27;99666.00;;;26.07;36.30
9189;BME280;34313;50.780;6.084;2023-07-13T13:31:54;99668.31;;;26.10;36.33
9189;BME280;34313;50.780;6.084;2023-07-13T13:34:20;99663.47;;;26.06;36.42
9189;BME280;34313;50.780;6.084;2023-07-13T13:36:48;99650.63;;;26.08;36.41
9189;BME280;34313;50.780;6.084;2023-07-13T13:39:29;99662.38;;;26.00;36.23
9189;BME280;34313;50.780;6.084;2023-07-13T13:41:57;99661.88;;;25.96;36.74
9189;BME280;34313;50.780;6.084;2023-07-13T13:44:23;99654.72;;;26.03;36.49
9189;BME280;34313;50.780;6.084;2023-07-13T13:46:52;99656.16;;;25.76;36.78